sensor_id;sensor_type;location;lat;lon;timestamp;temperature;humidity
3053;DHT22;1536;51.098;6.414;2022-09-30T00:01:48;10.10;99.90
3053;DHT22;1536;51.098;6.414;2022-09-30T00:04:17;10.10;99.90
3053;DHT22;1536;51.098;6.414;2022-09-30T00:06:44;10.00;99.90
3053;DHT22;1536;51.098;6.414;2022-09-30T00:09:12;10.10;99.90
3053;DHT22;1536;51.098;6.414;2022-09-30T00:11:39;10.10;99.90
3053;DHT22;1536;51.098;6.414;2022-09-30T00:14:08;10.10;99.90
3053;DHT22;1536;51.098;6.414;2022-09-30T00:16:39;10.00;99.90
3053;DHT22;1536;51.098;6.414;2022-09-30T00:19:05;10.00;99.90
3053;DHT22;1536;51.098;6.414;2022-09-30T00:21:33;10.00;99.90
3053;DHT22;1536;51.098;6.414;2022-09-30T00:24:00;9.90;99.90
3053;DHT22;1536;51.098;6.414;2022-09-30T00:26:27;9.90;99.90
3053;DHT22;1536;51.098;6.414;2022-09-30T00:28:55;10.00;99.90
3053;DHT22;1536;51.098;6.414;2022-09-30T00:31:24;10.00;99.90
3053;DHT22;1536;51.098;6.414;2022-09-30T00:33:52;10.00;99.90
3053;DHT22;1536;51.098;6.414;2022-09-30T00:36:33;10.00;99.90
3053;DHT22;1536;51.098;6.414;2022-09-30T00:38:59;9.90;99.90
3053;DHT22;1536;51.098;6.414;2022-09-30T00:41:26;9.90;99.90
3053;DHT22;1536;51.098;6.414;2022-09-30T00:43:53;9.90;99.90
3053;DHT22;1536;51.098;6.414;2022-09-30T00:46:25;9.90;99.90
3053;DHT22;1536;51.098;6.414;2022-09-30T00:48:58;9.90;99.90
3053;DHT22;1536;51.098;6.414;2022-09-30T00:51:30;9.90;99.90
3053;DHT22;1536;51.098;6.414;2022-09-30T00:54:00;9.80;99.90
3053;DHT22;1536;51.098;6.414;2022-09-30T00:56:30;9.80;99.90
3053;DHT22;1536;51.098;6.414;2022-09-30T00:59:04;9.80;99.90
3053;DHT22;1536;51.098;6.414;2022-09-30T01:01:33;9.70;99.90
3053;DHT22;1536;51.098;6.414;2022-09-30T01:04:05;9.70;99.90
3053;DHT22;1536;51.098;6.414;2022-09-30T01:06:35;9.60;99.90
3053;DHT22;1536;51.098;6.414;2022-09-30T01:09:02;9.60;99.90
3053;DHT22;1536;51.098;6.414;2022-09-30T01:11:29;9.50;99.90
3053;DHT22;1536;51.098;6.414;2022-09-30T01:13:58;9.50;99.90
3053;DHT22;1536;51.098;6.414;2022-09-30T01:16:36;9.50;99.90
3053;DHT22;1536;51.098;6.414;2022-09-30T01:22:13;9.50;99.90
3053;DHT22;1536;51.098;6.414;2022-09-30T01:25:05;9.50;99.90
3053;DHT22;1536;51.098;6.414;2022-09-30T01:27:55;9.50;99.90
3053;DHT22;1536;51.098;6.414;2022-09-30T01:30:42;9.60;99.90
3053;DHT22;1536;51.098;6.414;2022-09-30T01:33:20;9.60;99.90
3053;DHT22;1536;51.098;6.414;2022-09-30T01:36:10;9.60;99.90
3053;DHT22;1536;51.098;6.414;2022-09-30T01:38:46;9.70;99.90
3053;DHT22;1536;51.098;6.414;2022-09-30T01:41:21;9.70;99.90
3053;DHT22;1536;51.098;6.414;2022-09-30T01:43:56;9.60;99.90
3053;DHT22;1536;51.098;6.414;2022-09-30T01:46:31;9.60;99.90
3053;DHT22;1536;51.098;6.414;2022-09-30T01:49:08;9.60;99.90
3053;DHT22;1536;51.098;6.414;2022-09-30T01:51:42;9.60;99.90
3053;DHT22;1536;51.098;6.414;2022-09-30T01:54:15;9.60;99.90
3053;DHT22;1536;51.098;6.414;2022-09-30T01:56:45;9.60;99.90
3053;DHT22;1536;51.098;6.414;2022-09-30T01:59:15;9.50;99.90
3053;DHT22;1536;51.098;6.414;2022-09-30T02:01:50;9.50;99.90
3053;DHT22;1536;51.098;6.414;2022-09-30T02:04:22;9.50;99.90
3053;DHT22;1536;51.098;6.414;2022-09-30T02:06:53;9.50;99.90
3053;DHT22;1536;51.098;6.414;2022-09-30T02:09:24;9.50;99.90
3053;DHT22;1536;51.098;6.414;2022-09-30T02:11:53;9.40;99.90
3053;DHT22;1536;51.098;6.414;2022-09-30T02:14:26;9.40;99.90
3053;DHT22;1536;51.098;6.414;2022-09-30T02:16:59;9.40;99.90
3053;DHT22;1536;51.098;6.414;2022-09-30T02:19:30;9.30;99.90
3053;DHT22;1536;51.098;6.414;2022-09-30T02:21:59;9.30;99.90
3053;DHT22;1536;51.098;6.414;2022-09-30T02:24:33;9.30;99.90
3053;DHT22;1536;51.098;6.414;2022-09-30T02:27:03;9.30;99.90
3053;DHT22;1536;51.098;6.414;2022-09-30T02:29:34;9.20;99.90
3053;DHT22;1536;51.098;6.414;2022-09-30T02:32:07;9.20;99.90
3053;DHT22;1536;51.098;6.414;2022-09-30T02:34:38;9.20;99.90
3053;DHT22;1536;51.098;6.414;2022-09-30T02:37:09;9.10;99.90
3053;DHT22;1536;51.098;6.414;2022-09-30T02:39:42;9.10;99.90
3053;DHT22;1536;51.098;6.414;2022-09-30T02:42:17;9.20;99.90
3053;DHT22;1536;51.098;6.414;2022-09-30T02:44:46;9.20;99.90
3053;DHT22;1536;51.098;6.414;2022-09-30T02:47:21;9.20;99.90
3053;DHT22;1536;51.098;6.414;2022-09-30T02:49:55;9.20;99.90
3053;DHT22;1536;51.098;6.414;2022-09-30T02:52:30;9.20;99.90
3053;DHT22;1536;51.098;6.414;2022-09-30T02:55:13;9.10;99.90
3053;DHT22;1536;51.098;6.414;2022-09-30T02:57:56;9.10;99.90
3053;DHT22;1536;51.098;6.414;2022-09-30T03:00:26;9.10;99.90
3053;DHT22;1536;51.098;6.414;2022-09-30T03:02:57;9.10;99.90
3053;DHT22;1536;51.098;6.414;2022-09-30T03:05:26;9.10;99.90
3053;DHT22;1536;51.098;6.414;2022-09-30T03:07:54;9.10;99.90
3053;DHT22;1536;51.098;6.414;2022-09-30T03:10:21;9.10;99.90
3053;DHT22;1536;51.098;6.414;2022-09-30T03:13:09;9.10;99.90
3053;DHT22;1536;51.098;6.414;2022-09-30T03:15:46;9.10;99.90
3053;DHT22;1536;51.098;6.414;2022-09-30T03:18:36;9.20;99.90
3053;DHT22;1536;51.098;6.414;2022-09-30T03:21:11;9.20;99.90
3053;DHT22;1536;51.098;6.414;2022-09-30T03:24:03;9.20;99.90
3053;DHT22;1536;51.098;6.414;2022-09-30T03:26:38;9.10;99.90
3053;DHT22;1536;51.098;6.414;2022-09-30T03:29:13;9.10;99.90
3053;DHT22;1536;51.098;6.414;2022-09-30T03:31:53;9.10;99.90
3053;DHT22;1536;51.098;6.414;2022-09-30T03:34:27;9.10;99.90
3053;DHT22;1536;51.098;6.414;2022-09-30T03:36:59;9.10;99.90
3053;DHT22;1536;51.098;6.414;2022-09-30T03:39:42;9.10;99.90
3053;DHT22;1536;51.098;6.414;2022-09-30T03:42:16;9.10;99.90
3053;DHT22;1536;51.098;6.414;2022-09-30T03:44:51;9.10;99.90
3053;DHT22;1536;51.098;6.414;2022-09-30T03:47:21;9.10;99.90
3053;DHT22;1536;51.098;6.414;2022-09-30T03:49:55;9.10;99.90
3053;DHT22;1536;51.098;6.414;2022-09-30T03:52:24;9.00;99.90
3053;DHT22;1536;51.098;6.414;2022-09-30T03:54:54;9.00;99.90
3053;DHT22;1536;51.098;6.414;2022-09-30T03:57:24;9.00;99.90
3053;DHT22;1536;51.098;6.414;2022-09-30T03:59:53;9.00;99.90
3053;DHT22;1536;51.098;6.414;2022-09-30T04:02:20;9.00;99.90
3053;DHT22;1536;51.098;6.414;2022-09-30T04:04:47;8.90;99.90
3053;DHT22;1536;51.098;6.414;2022-09-30T04:07:16;8.90;99.90
3053;DHT22;1536;51.098;6.414;2022-09-30T04:09:43;8.90;99.90
3053;DHT22;1536;51.098;6.414;2022-09-30T04:12:09;8.90;99.90
3053;DHT22;1536;51.098;6.414;2022-09-30T04:14:36;8.90;99.90
3053;DHT22;1536;51.098;6.414;2022-09-30T04:17:04;8.90;99.90
3053;DHT22;1536;51.098;6.414;2022-09-30T04:19:31;8.90;99.90
3053;DHT22;1536;51.098;6.414;2022-09-30T04:22:02;8.90;99.90
3053;DHT22;1536;51.098;6.414;2022-09-30T04:24:30;8.80;99.90
3053;DHT22;1536;51.098;6.414;2022-09-30T04:26:57;8.80;99.90
3053;DHT22;1536;51.098;6.414;2022-09-30T04:29:24;8.70;99.90
3053;DHT22;1536;51.098;6.414;2022-09-30T04:31:51;8.70;99.90
3053;DHT22;1536;51.098;6.414;2022-09-30T04:34:18;8.70;99.90
3053;DHT22;1536;51.098;6.414;2022-09-30T04:36:44;8.80;99.90
3053;DHT22;1536;51.098;6.414;2022-09-30T04:39:11;8.80;99.90
3053;DHT22;1536;51.098;6.414;2022-09-30T04:41:39;8.90;99.90
3053;DHT22;1536;51.098;6.414;2022-09-30T04:44:06;8.90;99.90
3053;DHT22;1536;51.098;6.414;2022-09-30T04:46:33;9.00;99.90
3053;DHT22;1536;51.098;6.414;2022-09-30T04:49:02;9.00;99.90
3053;DHT22;1536;51.098;6.414;2022-09-30T04:51:29;9.10;99.90
3053;DHT22;1536;51.098;6.414;2022-09-30T04:53:56;9.10;99.90
3053;DHT22;1536;51.098;6.414;2022-09-30T04:56:23;9.10;99.90
3053;DHT22;1536;51.098;6.414;2022-09-30T04:58:52;9.10;99.90
3053;DHT22;1536;51.098;6.414;2022-09-30T05:01:19;9.20;99.90
3053;DHT22;1536;51.098;6.414;2022-09-30T05:03:46;9.30;99.90
3053;DHT22;1536;51.098;6.414;2022-09-30T05:06:15;9.30;99.90
3053;DHT22;1536;51.098;6.414;2022-09-30T05:08:42;9.20;99.90
3053;DHT22;1536;51.098;6.414;2022-09-30T05:11:12;9.20;99.90
3053;DHT22;1536;51.098;6.414;2022-09-30T05:13:40;9.10;99.90
3053;DHT22;1536;51.098;6.414;2022-09-30T05:16:09;9.10;99.90
3053;DHT22;1536;51.098;6.414;2022-09-30T05:18:36;9.10;99.90
3053;DHT22;1536;51.098;6.414;2022-09-30T05:21:04;9.10;99.90
3053;DHT22;1536;51.098;6.414;2022-09-30T05:23:32;9.10;99.90
3053;DHT22;1536;51.098;6.414;2022-09-30T05:25:59;9.00;99.90
3053;DHT22;1536;51.098;6.414;2022-09-30T05:28:26;9.00;99.90
3053;DHT22;1536;51.098;6.414;2022-09-30T05:30:56;9.00;99.90
3053;DHT22;1536;51.098;6.414;2022-09-30T05:33:26;9.00;99.90
3053;DHT22;1536;51.098;6.414;2022-09-30T05:35:54;9.00;99.90
3053;DHT22;1536;51.098;6.414;2022-09-30T05:38:24;9.00;99.90
3053;DHT22;1536;51.098;6.414;2022-09-30T05:40:50;9.00;99.90
3053;DHT22;1536;51.098;6.414;2022-09-30T05:43:18;9.00;99.90
3053;DHT22;1536;51.098;6.414;2022-09-30T05:45:51;9.00;99.90
3053;DHT22;1536;51.098;6.414;2022-09-30T05:48:17;9.00;99.90
3053;DHT22;1536;51.098;6.414;2022-09-30T05:50:46;9.10;99.90
3053;DHT22;1536;51.098;6.414;2022-09-30T05:53:17;9.10;99.90
3053;DHT22;1536;51.098;6.414;2022-09-30T05:55:44;9.10;99.90
3053;DHT22;1536;51.098;6.414;2022-09-30T05:58:12;9.10;99.90
3053;DHT22;1536;51.098;6.414;2022-09-30T06:00:39;9.10;99.90
3053;DHT22;1536;51.098;6.414;2022-09-30T06:03:06;9.10;99.90
3053;DHT22;1536;51.098;6.414;2022-09-30T06:05:33;9.10;99.90
3053;DHT22;1536;51.098;6.414;2022-09-30T06:08:02;9.10;99.90
3053;DHT22;1536;51.098;6.414;2022-09-30T06:10:29;9.10;99.90
3053;DHT22;1536;51.098;6.414;2022-09-30T06:12:56;9.00;99.90
3053;DHT22;1536;51.098;6.414;2022-09-30T06:15:23;9.10;99.90
3053;DHT22;1536;51.098;6.414;2022-09-30T06:17:52;9.10;99.90
3053;DHT22;1536;51.098;6.414;2022-09-30T06:20:18;9.10;99.90
3053;DHT22;1536;51.098;6.414;2022-09-30T06:22:45;9.20;99.90
3053;DHT22;1536;51.098;6.414;2022-09-30T06:25:13;9.20;99.90
3053;DHT22;1536;51.098;6.414;2022-09-30T06:27:43;9.20;99.90
3053;DHT22;1536;51.098;6.414;2022-09-30T06:30:11;9.20;99.90
3053;DHT22;1536;51.098;6.414;2022-09-30T06:32:38;9.20;99.90
3053;DHT22;1536;51.098;6.414;2022-09-30T06:35:05;9.20;99.90
3053;DHT22;1536;51.098;6.414;2022-09-30T06:37:32;9.10;99.90
3053;DHT22;1536;51.098;6.414;2022-09-30T06:40:00;9.20;99.90
3053;DHT22;1536;51.098;6.414;2022-09-30T06:42:28;9.20;99.90
3053;DHT22;1536;51.098;6.414;2022-09-30T06:44:55;9.30;99.90
3053;DHT22;1536;51.098;6.414;2022-09-30T06:47:22;9.30;99.90
3053;DHT22;1536;51.098;6.414;2022-09-30T06:49:49;9.30;99.90
3053;DHT22;1536;51.098;6.414;2022-09-30T06:52:18;9.30;99.90
3053;DHT22;1536;51.098;6.414;2022-09-30T06:54:46;9.30;99.90
3053;DHT22;1536;51.098;6.414;2022-09-30T06:57:14;9.40;99.90
3053;DHT22;1536;51.098;6.414;2022-09-30T06:59:42;9.50;99.90
3053;DHT22;1536;51.098;6.414;2022-09-30T07:02:10;9.60;99.90
3053;DHT22;1536;51.098;6.414;2022-09-30T07:04:37;9.70;99.90
3053;DHT22;1536;51.098;6.414;2022-09-30T07:07:04;9.70;99.90
3053;DHT22;1536;51.098;6.414;2022-09-30T07:09:31;9.80;99.90
3053;DHT22;1536;51.098;6.414;2022-09-30T07:11:58;9.90;99.90
3053;DHT22;1536;51.098;6.414;2022-09-30T07:14:25;10.00;99.90
3053;DHT22;1536;51.098;6.414;2022-09-30T07:16:53;10.10;99.90
3053;DHT22;1536;51.098;6.414;2022-09-30T07:19:19;10.20;99.90
3053;DHT22;1536;51.098;6.414;2022-09-30T07:21:47;10.30;99.90
3053;DHT22;1536;51.098;6.414;2022-09-30T07:24:14;10.30;99.90
3053;DHT22;1536;51.098;6.414;2022-09-30T07:26:41;10.40;99.90
3053;DHT22;1536;51.098;6.414;2022-09-30T07:29:10;10.50;99.90
3053;DHT22;1536;51.098;6.414;2022-09-30T07:31:37;10.60;99.90
3053;DHT22;1536;51.098;6.414;2022-09-30T07:34:07;10.60;99.90
3053;DHT22;1536;51.098;6.414;2022-09-30T07:36:35;10.70;99.90
3053;DHT22;1536;51.098;6.414;2022-09-30T07:39:04;10.80;99.90
3053;DHT22;1536;51.098;6.414;2022-09-30T07:41:32;10.90;99.90
3053;DHT22;1536;51.098;6.414;2022-09-30T07:43:59;10.90;99.90
3053;DHT22;1536;51.098;6.414;2022-09-30T07:46:29;11.00;99.90
3053;DHT22;1536;51.098;6.414;2022-09-30T07:48:57;11.10;99.90
3053;DHT22;1536;51.098;6.414;2022-09-30T07:51:29;11.10;99.90
3053;DHT22;1536;51.098;6.414;2022-09-30T07:53:58;11.20;99.90
3053;DHT22;1536;51.098;6.414;2022-09-30T07:56:26;11.20;99.90
3053;DHT22;1536;51.098;6.414;2022-09-30T07:58:53;11.30;99.90
3053;DHT22;1536;51.098;6.414;2022-09-30T08:01:20;11.40;99.90
3053;DHT22;1536;51.098;6.414;2022-09-30T08:03:47;11.40;99.90
3053;DHT22;1536;51.098;6.414;2022-09-30T08:06:18;11.40;99.90
3053;DHT22;1536;51.098;6.414;2022-09-30T08:08:48;11.50;99.90
3053;DHT22;1536;51.098;6.414;2022-09-30T08:11:16;11.60;99.90
3053;DHT22;1536;51.098;6.414;2022-09-30T08:13:42;11.60;99.90
3053;DHT22;1536;51.098;6.414;2022-09-30T08:16:09;11.70;99.90
3053;DHT22;1536;51.098;6.414;2022-09-30T08:18:36;11.70;99.90
3053;DHT22;1536;51.098;6.414;2022-09-30T08:21:04;11.80;99.90
3053;DHT22;1536;51.098;6.414;2022-09-30T08:23:31;11.80;99.90
3053;DHT22;1536;51.098;6.414;2022-09-30T08:26:04;11.80;99.90
3053;DHT22;1536;51.098;6.414;2022-09-30T08:28:32;11.90;99.90
3053;DHT22;1536;51.098;6.414;2022-09-30T08:31:03;11.90;99.90
3053;DHT22;1536;51.098;6.414;2022-09-30T08:33:30;12.00;99.90
3053;DHT22;1536;51.098;6.414;2022-09-30T08:36:01;12.00;99.90
3053;DHT22;1536;51.098;6.414;2022-09-30T08:38:28;12.10;99.90
3053;DHT22;1536;51.098;6.414;2022-09-30T08:41:04;12.10;99.90
3053;DHT22;1536;51.098;6.414;2022-09-30T08:43:38;12.10;99.90
3053;DHT22;1536;51.098;6.414;2022-09-30T08:46:14;12.20;99.90
3053;DHT22;1536;51.098;6.414;2022-09-30T08:48:50;12.20;99.90
3053;DHT22;1536;51.098;6.414;2022-09-30T08:51:29;12.20;99.90
3053;DHT22;1536;51.098;6.414;2022-09-30T08:53:58;12.30;99.90
3053;DHT22;1536;51.098;6.414;2022-09-30T08:56:30;12.30;99.90
3053;DHT22;1536;51.098;6.414;2022-09-30T08:59:02;12.30;99.90
3053;DHT22;1536;51.098;6.414;2022-09-30T09:01:32;12.30;99.90
3053;DHT22;1536;51.098;6.414;2022-09-30T09:04:01;12.40;99.90
3053;DHT22;1536;51.098;6.414;2022-09-30T09:06:35;12.40;99.90
3053;DHT22;1536;51.098;6.414;2022-09-30T09:09:24;12.50;99.90
3053;DHT22;1536;51.098;6.414;2022-09-30T09:12:05;12.50;99.90
3053;DHT22;1536;51.098;6.414;2022-09-30T09:14:47;12.50;99.90
3053;DHT22;1536;51.098;6.414;2022-09-30T09:17:27;12.60;99.90
3053;DHT22;1536;51.098;6.414;2022-09-30T09:20:02;12.70;99.90
3053;DHT22;1536;51.098;6.414;2022-09-30T09:22:30;12.70;99.90
3053;DHT22;1536;51.098;6.414;2022-09-30T09:24:58;12.80;99.90
3053;DHT22;1536;51.098;6.414;2022-09-30T09:27:33;12.80;99.90
3053;DHT22;1536;51.098;6.414;2022-09-30T09:30:05;12.90;99.90
3053;DHT22;1536;51.098;6.414;2022-09-30T09:32:34;12.90;99.90
3053;DHT22;1536;51.098;6.414;2022-09-30T09:35:11;12.90;99.90
3053;DHT22;1536;51.098;6.414;2022-09-30T09:37:45;13.00;99.90
3053;DHT22;1536;51.098;6.414;2022-09-30T09:40:33;13.00;99.90
3053;DHT22;1536;51.098;6.414;2022-09-30T09:43:13;13.10;99.90
3053;DHT22;1536;51.098;6.414;2022-09-30T09:45:48;13.10;99.90
3053;DHT22;1536;51.098;6.414;2022-09-30T09:48:17;13.20;99.90
3053;DHT22;1536;51.098;6.414;2022-09-30T09:50:54;13.30;99.90
3053;DHT22;1536;51.098;6.414;2022-09-30T09:53:39;13.30;99.90
3053;DHT22;1536;51.098;6.414;2022-09-30T09:56:13;13.40;99.90
3053;DHT22;1536;51.098;6.414;2022-09-30T09:59:09;13.50;99.90
3053;DHT22;1536;51.098;6.414;2022-09-30T10:01:39;13.50;99.90
3053;DHT22;1536;51.098;6.414;2022-09-30T10:04:13;13.60;99.90
3053;DHT22;1536;51.098;6.414;2022-09-30T10:06:47;13.60;99.90
3053;DHT22;1536;51.098;6.414;2022-09-30T10:09:29;13.70;99.90
3053;DHT22;1536;51.098;6.414;2022-09-30T10:12:25;13.70;99.90
3053;DHT22;1536;51.098;6.414;2022-09-30T10:15:02;13.80;99.90
3053;DHT22;1536;51.098;6.414;2022-09-30T10:17:30;13.90;99.90
3053;DHT22;1536;51.098;6.414;2022-09-30T10:20:00;13.90;99.90
3053;DHT22;1536;51.098;6.414;2022-09-30T10:22:31;14.00;99.90
3053;DHT22;1536;51.098;6.414;2022-09-30T10:25:18;14.00;99.90
3053;DHT22;1536;51.098;6.414;2022-09-30T10:27:54;14.10;99.90
3053;DHT22;1536;51.098;6.414;2022-09-30T10:30:38;14.20;99.90
3053;DHT22;1536;51.098;6.414;2022-09-30T10:33:16;14.20;99.90
3053;DHT22;1536;51.098;6.414;2022-09-30T10:36:05;14.20;99.90
3053;DHT22;1536;51.098;6.414;2022-09-30T10:41:21;14.30;99.90
3053;DHT22;1536;51.098;6.414;2022-09-30T10:43:50;14.30;99.90
3053;DHT22;1536;51.098;6.414;2022-09-30T10:46:23;14.40;99.90
3053;DHT22;1536;51.098;6.414;2022-09-30T10:48:52;14.40;99.90
3053;DHT22;1536;51.098;6.414;2022-09-30T10:51:26;14.40;99.90
3053;DHT22;1536;51.098;6.414;2022-09-30T10:53:54;14.40;99.90
3053;DHT22;1536;51.098;6.414;2022-09-30T10:56:32;14.40;99.90
3053;DHT22;1536;51.098;6.414;2022-09-30T10:59:00;14.40;99.90
3053;DHT22;1536;51.098;6.414;2022-09-30T11:01:31;14.40;99.90
3053;DHT22;1536;51.098;6.414;2022-09-30T11:04:03;14.40;99.90
3053;DHT22;1536;51.098;6.414;2022-09-30T11:06:37;14.40;99.90
3053;DHT22;1536;51.098;6.414;2022-09-30T11:09:08;14.40;99.90
3053;DHT22;1536;51.098;6.414;2022-09-30T11:11:38;14.50;99.90
3053;DHT22;1536;51.098;6.414;2022-09-30T11:14:19;14.50;99.90
3053;DHT22;1536;51.098;6.414;2022-09-30T11:16:59;14.60;99.90
3053;DHT22;1536;51.098;6.414;2022-09-30T11:19:33;14.70;99.90
3053;DHT22;1536;51.098;6.414;2022-09-30T11:22:14;14.80;99.90
3053;DHT22;1536;51.098;6.414;2022-09-30T11:24:48;14.80;99.90
3053;DHT22;1536;51.098;6.414;2022-09-30T11:27:26;14.80;99.90
3053;DHT22;1536;51.098;6.414;2022-09-30T11:30:03;14.90;99.90
3053;DHT22;1536;51.098;6.414;2022-09-30T11:32:50;14.90;99.90
3053;DHT22;1536;51.098;6.414;2022-09-30T11:35:35;14.90;99.90
3053;DHT22;1536;51.098;6.414;2022-09-30T11:38:29;15.00;99.90
3053;DHT22;1536;51.098;6.414;2022-09-30T11:41:04;15.00;99.90
3053;DHT22;1536;51.098;6.414;2022-09-30T11:43:43;15.00;99.90
3053;DHT22;1536;51.098;6.414;2022-09-30T11:46:24;15.10;99.90
3053;DHT22;1536;51.098;6.414;2022-09-30T11:49:13;15.10;99.90
3053;DHT22;1536;51.098;6.414;2022-09-30T11:51:47;15.20;99.90
3053;DHT22;1536;51.098;6.414;2022-09-30T11:54:30;15.20;99.90
3053;DHT22;1536;51.098;6.414;2022-09-30T11:57:06;15.30;99.90
3053;DHT22;1536;51.098;6.414;2022-09-30T11:59:42;15.40;99.90
3053;DHT22;1536;51.098;6.414;2022-09-30T12:02:19;15.40;99.90
3053;DHT22;1536;51.098;6.414;2022-09-30T12:04:54;15.50;99.90
3053;DHT22;1536;51.098;6.414;2022-09-30T12:07:27;15.50;99.90
3053;DHT22;1536;51.098;6.414;2022-09-30T12:09:59;15.50;99.90
3053;DHT22;1536;51.098;6.414;2022-09-30T12:12:26;15.60;99.90
3053;DHT22;1536;51.098;6.414;2022-09-30T12:14:57;15.60;99.90
3053;DHT22;1536;51.098;6.414;2022-09-30T12:17:29;15.60;99.90
3053;DHT22;1536;51.098;6.414;2022-09-30T12:20:04;15.70;99.90
3053;DHT22;1536;51.098;6.414;2022-09-30T12:22:37;15.70;99.90
3053;DHT22;1536;51.098;6.414;2022-09-30T12:25:12;15.80;99.90
3053;DHT22;1536;51.098;6.414;2022-09-30T12:27:44;15.80;99.90
3053;DHT22;1536;51.098;6.414;2022-09-30T12:30:14;15.80;99.90
3053;DHT22;1536;51.098;6.414;2022-09-30T12:33:17;15.90;99.90
3053;DHT22;1536;51.098;6.414;2022-09-30T12:39:04;16.00;99.90
3053;DHT22;1536;51.098;6.414;2022-09-30T12:41:45;16.00;99.90
3053;DHT22;1536;51.098;6.414;2022-09-30T12:44:33;16.10;99.90
3053;DHT22;1536;51.098;6.414;2022-09-30T12:47:15;16.10;99.90
3053;DHT22;1536;51.098;6.414;2022-09-30T12:49:43;16.20;99.90
3053;DHT22;1536;51.098;6.414;2022-09-30T12:52:15;16.30;99.90
3053;DHT22;1536;51.098;6.414;2022-09-30T12:54:47;16.30;99.90
3053;DHT22;1536;51.098;6.414;2022-09-30T12:57:22;16.30;99.90
3053;DHT22;1536;51.098;6.414;2022-09-30T12:59:53;16.30;99.90
3053;DHT22;1536;51.098;6.414;2022-09-30T13:02:28;16.40;99.90
3053;DHT22;1536;51.098;6.414;2022-09-30T13:05:46;16.40;99.90
3053;DHT22;1536;51.098;6.414;2022-09-30T13:08:41;16.30;99.90
3053;DHT22;1536;51.098;6.414;2022-09-30T13:11:30;16.40;99.90
3053;DHT22;1536;51.098;6.414;2022-09-30T13:14:03;16.40;99.90
3053;DHT22;1536;51.098;6.414;2022-09-30T13:17:03;16.50;99.90
3053;DHT22;1536;51.098;6.414;2022-09-30T13:19:48;16.50;99.90
3053;DHT22;1536;51.098;6.414;2022-09-30T13:22:43;16.50;99.90
3053;DHT22;1536;51.098;6.414;2022-09-30T13:25:13;16.60;99.90
3053;DHT22;1536;51.098;6.414;2022-09-30T13:27:43;16.60;99.90
3053;DHT22;1536;51.098;6.414;2022-09-30T13:30:34;16.60;99.90
3053;DHT22;1536;51.098;6.414;2022-09-30T13:33:27;16.60;99.90
3053;DHT22;1536;51.098;6.414;2022-09-30T13:35:57;16.60;99.90
3053;DHT22;1536;51.098;6.414;2022-09-30T13:38:33;16.60;99.90
3053;DHT22;1536;51.098;6.414;2022-09-30T13:41:09;16.60;99.90
3053;DHT22;1536;51.098;6.414;2022-09-30T13:43:42;16.60;99.90
3053;DHT22;1536;51.098;6.414;2022-09-30T13:46:23;16.60;99.90
3053;DHT22;1536;51.098;6.414;2022-09-30T13:48:57;16.60;99.90
3053;DHT22;1536;51.098;6.414;2022-09-30T13:51:28;16.60;99.90
3053;DHT22;1536;51.098;6.414;2022-09-30T13:54:01;16.70;99.90
3053;DHT22;1536;51.098;6.414;2022-09-30T13:56:35;16.70;99.90
3053;DHT22;1536;51.098;6.414;2022-09-30T13:59:17;16.70;99.90
3053;DHT22;1536;51.098;6.414;2022-09-30T14:07:38;16.80;99.90
3053;DHT22;1536;51.098;6.414;2022-09-30T14:10:21;16.80;99.90
3053;DHT22;1536;51.098;6.414;2022-09-30T14:13:10;16.80;99.90
3053;DHT22;1536;51.098;6.414;2022-09-30T14:15:55;16.90;99.90
3053;DHT22;1536;51.098;6.414;2022-09-30T14:18:40;16.90;99.90
3053;DHT22;1536;51.098;6.414;2022-09-30T14:21:22;17.00;99.90
3053;DHT22;1536;51.098;6.414;2022-09-30T14:23:56;17.00;99.90
3053;DHT22;1536;51.098;6.414;2022-09-30T14:26:37;17.00;99.90
3053;DHT22;1536;51.098;6.414;2022-09-30T14:29:14;17.10;99.90
3053;DHT22;1536;51.098;6.414;2022-09-30T14:31:44;17.10;99.90
3053;DHT22;1536;51.098;6.414;2022-09-30T14:34:12;17.10;99.90
3053;DHT22;1536;51.098;6.414;2022-09-30T14:36:40;17.10;99.90
3053;DHT22;1536;51.098;6.414;2022-09-30T14:39:14;17.10;99.90
3053;DHT22;1536;51.098;6.414;2022-09-30T14:41:48;17.10;99.90
3053;DHT22;1536;51.098;6.414;2022-09-30T14:44:17;17.10;99.90
3053;DHT22;1536;51.098;6.414;2022-09-30T14:46:46;17.10;99.90
3053;DHT22;1536;51.098;6.414;2022-09-30T14:49:16;17.10;99.90
3053;DHT22;1536;51.098;6.414;2022-09-30T14:51:45;17.20;99.90
3053;DHT22;1536;51.098;6.414;2022-09-30T14:54:18;17.20;99.90
3053;DHT22;1536;51.098;6.414;2022-09-30T14:56:46;17.20;99.90
3053;DHT22;1536;51.098;6.414;2022-09-30T14:59:18;17.20;99.90
3053;DHT22;1536;51.098;6.414;2022-09-30T15:01:48;17.20;99.90
3053;DHT22;1536;51.098;6.414;2022-09-30T15:04:17;17.20;99.90
3053;DHT22;1536;51.098;6.414;2022-09-30T15:06:47;17.20;99.90
3053;DHT22;1536;51.098;6.414;2022-09-30T15:09:16;17.20;99.90
3053;DHT22;1536;51.098;6.414;2022-09-30T15:11:44;17.20;99.90
3053;DHT22;1536;51.098;6.414;2022-09-30T15:14:15;17.30;99.90
3053;DHT22;1536;51.098;6.414;2022-09-30T15:16:46;17.30;99.90
3053;DHT22;1536;51.098;6.414;2022-09-30T15:19:17;17.30;99.90
3053;DHT22;1536;51.098;6.414;2022-09-30T15:21:44;17.30;99.90
3053;DHT22;1536;51.098;6.414;2022-09-30T15:24:13;17.30;99.90
3053;DHT22;1536;51.098;6.414;2022-09-30T15:26:40;17.30;99.90
3053;DHT22;1536;51.098;6.414;2022-09-30T15:29:09;17.30;99.90
3053;DHT22;1536;51.098;6.414;2022-09-30T15:31:43;17.30;99.90
3053;DHT22;1536;51.098;6.414;2022-09-30T15:34:15;17.30;99.90
3053;DHT22;1536;51.098;6.414;2022-09-30T15:36:43;17.20;99.90
3053;DHT22;1536;51.098;6.414;2022-09-30T15:39:23;17.20;99.90
3053;DHT22;1536;51.098;6.414;2022-09-30T15:42:11;17.20;99.90
3053;DHT22;1536;51.098;6.414;2022-09-30T15:44:38;17.10;99.90
3053;DHT22;1536;51.098;6.414;2022-09-30T15:47:07;17.10;99.90
3053;DHT22;1536;51.098;6.414;2022-09-30T15:49:45;17.00;99.90
3053;DHT22;1536;51.098;6.414;2022-09-30T15:52:26;16.90;99.90
3053;DHT22;1536;51.098;6.414;2022-09-30T15:54:54;16.80;99.90
3053;DHT22;1536;51.098;6.414;2022-09-30T15:57:41;16.70;99.90
3053;DHT22;1536;51.098;6.414;2022-09-30T16:00:34;16.70;99.90
3053;DHT22;1536;51.098;6.414;2022-09-30T16:03:25;16.70;99.90
3053;DHT22;1536;51.098;6.414;2022-09-30T16:06:04;16.60;99.90
3053;DHT22;1536;51.098;6.414;2022-09-30T16:08:39;16.50;99.90
3053;DHT22;1536;51.098;6.414;2022-09-30T16:11:06;16.50;99.90
3053;DHT22;1536;51.098;6.414;2022-09-30T16:13:35;16.50;99.90
3053;DHT22;1536;51.098;6.414;2022-09-30T16:16:17;16.40;99.90
3053;DHT22;1536;51.098;6.414;2022-09-30T16:18:45;16.40;99.90
3053;DHT22;1536;51.098;6.414;2022-09-30T16:21:29;16.30;99.90
3053;DHT22;1536;51.098;6.414;2022-09-30T16:23:57;16.30;99.90
3053;DHT22;1536;51.098;6.414;2022-09-30T16:26:28;16.30;99.90
3053;DHT22;1536;51.098;6.414;2022-09-30T16:28:57;16.20;99.90
3053;DHT22;1536;51.098;6.414;2022-09-30T16:31:27;16.20;99.90
3053;DHT22;1536;51.098;6.414;2022-09-30T16:33:55;16.20;99.90
3053;DHT22;1536;51.098;6.414;2022-09-30T16:36:22;16.10;99.90
3053;DHT22;1536;51.098;6.414;2022-09-30T16:38:50;16.10;99.90
3053;DHT22;1536;51.098;6.414;2022-09-30T16:41:16;16.10;99.90
3053;DHT22;1536;51.098;6.414;2022-09-30T16:43:43;16.00;99.90
3053;DHT22;1536;51.098;6.414;2022-09-30T16:46:10;16.00;99.90
3053;DHT22;1536;51.098;6.414;2022-09-30T16:48:37;15.90;99.90
3053;DHT22;1536;51.098;6.414;2022-09-30T16:51:06;15.90;99.90
3053;DHT22;1536;51.098;6.414;2022-09-30T16:53:33;15.90;99.90
3053;DHT22;1536;51.098;6.414;2022-09-30T16:56:03;15.90;99.90
3053;DHT22;1536;51.098;6.414;2022-09-30T16:58:30;15.80;99.90